createdAt,value
2018-01-12T00:01:17.035Z,100714.67
2018-01-12T00:03:44.519Z,100706.14
2018-01-12T00:06:11.983Z,100710.19
2018-01-12T00:08:39.458Z,100713.91
2018-01-12T00:11:06.912Z,100707.14
2018-01-12T00:13:34.385Z,100715.83
2018-01-12T00:16:01.850Z,100713.45
2018-01-12T00:18:29.306Z,100719.55
2018-01-12T00:20:56.785Z,100720.75
2018-01-12T00:23:24.252Z,100726.40
2018-01-12T00:25:51.716Z,100728.27
2018-01-12T00:28:19.159Z,100736.48
2018-01-12T00:30:46.622Z,100744.56
2018-01-12T00:33:14.078Z,100736.62
2018-01-12T00:35:41.570Z,100735.23
2018-01-12T00:38:09.039Z,100744.64
2018-01-12T00:40:36.505Z,100748.50
2018-01-12T00:43:03.955Z,100738.41
2018-01-12T00:45:31.428Z,100745.91
2018-01-12T00:47:58.876Z,100748.09
2018-01-12T00:50:26.339Z,100746.89
2018-01-12T00:52:53.830Z,100745.81
2018-01-12T00:55:21.273Z,100742.77
2018-01-12T00:57:48.904Z,100741.66
2018-01-12T01:00:16.372Z,100745.89
2018-01-12T01:02:43.840Z,100750.06
2018-01-12T01:05:11.302Z,100753.84
2018-01-12T01:07:38.767Z,100751.63
2018-01-12T01:10:06.230Z,100756.63
2018-01-12T01:12:33.688Z,100761.06
2018-01-12T01:15:01.144Z,100764.92
2018-01-12T01:17:28.605Z,100769.97
2018-01-12T01:19:56.058Z,100774.27
2018-01-12T01:22:23.512Z,100772.35
2018-01-12T01:24:51.007Z,100780.23
2018-01-12T01:27:18.460Z,100774.14
2018-01-12T01:29:45.952Z,100782.91
2018-01-12T01:32:13.407Z,100780.19
2018-01-12T01:34:40.883Z,100782.63
2018-01-12T01:37:08.353Z,100786.70
2018-01-12T01:39:35.825Z,100784.64
2018-01-12T01:42:03.290Z,100786.75
2018-01-12T01:44:30.757Z,100782.58
2018-01-12T01:46:58.242Z,100779.98
2018-01-12T01:49:25.697Z,100781.92
2018-01-12T01:51:53.185Z,100787.98
2018-01-12T01:54:20.662Z,100788.63
2018-01-12T01:56:48.115Z,100790.34
2018-01-12T01:59:15.596Z,100787.17
2018-01-12T02:01:43.060Z,100793.23
2018-01-12T02:04:10.519Z,100794.66
2018-01-12T02:06:37.968Z,100795.94
2018-01-12T02:09:05.450Z,100801.06
2018-01-12T02:11:32.922Z,100802.47
2018-01-12T02:14:00.391Z,100802.91
2018-01-12T02:16:27.854Z,100810.48
2018-01-12T02:18:55.332Z,100814.32
2018-01-12T02:21:22.781Z,100809.48
2018-01-12T02:23:50.275Z,100813.66
2018-01-12T02:26:17.710Z,100811.61
2018-01-12T02:28:45.176Z,100814.20
2018-01-12T02:31:12.628Z,100814.77
2018-01-12T02:33:40.140Z,100817.84
2018-01-12T02:36:07.621Z,100820.64
2018-01-12T02:38:35.077Z,100821.15
2018-01-12T02:41:02.556Z,100824.81
2018-01-12T02:43:30.017Z,100827.80
2018-01-12T02:45:57.472Z,100826.73
2018-01-12T02:48:24.936Z,100827.88
2018-01-12T02:50:52.404Z,100829.52
2018-01-12T02:53:19.851Z,100833.83
2018-01-12T02:55:47.356Z,100833.52
2018-01-12T02:58:14.774Z,100834.59
2018-01-12T03:00:42.228Z,100843.13
2018-01-12T03:03:09.694Z,100840.27
2018-01-12T03:05:37.160Z,100840.91
2018-01-12T03:08:04.626Z,100843.38
2018-01-12T03:10:32.075Z,100848.77
2018-01-12T03:12:59.552Z,100849.86
2018-01-12T03:15:26.995Z,100852.20
2018-01-12T03:17:54.495Z,100846.64
2018-01-12T03:20:21.965Z,100848.48
2018-01-12T03:22:49.442Z,100844.30
2018-01-12T03:25:16.900Z,100848.03
2018-01-12T03:27:44.371Z,100851.61
2018-01-12T03:30:11.845Z,100852.78
2018-01-12T03:32:39.301Z,100854.17
2018-01-12T03:35:06.769Z,100850.06
2018-01-12T03:37:34.221Z,100853.29
2018-01-12T03:40:01.682Z,100850.71
2018-01-12T03:42:29.134Z,100851.11
2018-01-12T03:44:56.602Z,100848.31
2018-01-12T03:47:24.852Z,100851.96
2018-01-12T03:49:52.311Z,100848.11
2018-01-12T03:52:19.760Z,100855.09
2018-01-12T03:54:47.247Z,100853.83
2018-01-12T03:57:14.710Z,100850.40
2018-01-12T03:59:42.160Z,100850.43
2018-01-12T04:02:09.633Z,100852.33
2018-01-12T04:04:37.094Z,100854.96
2018-01-12T04:07:04.568Z,100856.63
2018-01-12T04:09:32.036Z,100858.08
2018-01-12T04:11:59.501Z,100861.67
2018-01-12T04:14:26.951Z,100856.91
2018-01-12T04:16:54.441Z,100855.96
2018-01-12T04:19:21.887Z,100862.62
2018-01-12T04:21:49.375Z,100861.63
2018-01-12T04:24:16.829Z,100869.00
2018-01-12T04:26:44.286Z,100867.86
2018-01-12T04:29:11.799Z,100869.39
2018-01-12T04:31:39.239Z,100862.81
2018-01-12T04:34:06.724Z,100864.86
2018-01-12T04:36:34.180Z,100872.38
2018-01-12T04:39:01.641Z,100867.66
2018-01-12T04:41:29.105Z,100870.31
2018-01-12T04:43:56.593Z,100875.39
2018-01-12T04:46:24.048Z,100876.70
2018-01-12T04:48:51.518Z,100874.98
2018-01-12T04:51:18.976Z,100878.30
2018-01-12T04:53:46.428Z,100878.48
2018-01-12T04:56:13.940Z,100877.05
2018-01-12T04:58:41.629Z,100877.72
2018-01-12T05:01:09.085Z,100881.77
2018-01-12T05:03:36.545Z,100882.49
2018-01-12T05:06:04.017Z,100889.67
2018-01-12T05:08:31.478Z,100893.59
2018-01-12T05:10:58.957Z,100898.77
2018-01-12T05:13:26.429Z,100895.70
2018-01-12T05:15:53.893Z,100897.38
2018-01-12T05:18:21.354Z,100902.94
2018-01-12T05:20:48.825Z,100909.99
2018-01-12T05:23:16.276Z,100906.70
2018-01-12T05:25:43.752Z,100911.33
2018-01-12T05:28:11.227Z,100912.05
2018-01-12T05:30:38.701Z,100905.92
2018-01-12T05:33:06.160Z,100910.39
2018-01-12T05:35:33.641Z,100910.78
2018-01-12T05:38:01.081Z,100911.11
2018-01-12T05:40:28.533Z,100912.30
2018-01-12T05:42:56.005Z,100913.14
2018-01-12T05:45:23.481Z,100913.72
2018-01-12T05:47:50.935Z,100918.59
2018-01-12T05:50:18.392Z,100918.43
2018-01-12T05:52:45.842Z,100926.36
2018-01-12T05:55:13.292Z,100928.80
2018-01-12T05:57:40.747Z,100932.34
2018-01-12T06:00:08.202Z,100937.97
2018-01-12T06:02:47.484Z,100940.26
2018-01-12T06:05:26.638Z,100937.92
2018-01-12T06:07:54.103Z,100936.17
2018-01-12T06:10:21.563Z,100945.78
2018-01-12T06:12:49.028Z,100948.22
2018-01-12T06:15:16.494Z,100948.45
2018-01-12T06:17:44.003Z,100950.66
2018-01-12T06:20:11.465Z,100949.52
2018-01-12T06:22:38.920Z,100949.91
2018-01-12T06:25:06.382Z,100950.49
2018-01-12T06:27:33.828Z,100950.66
2018-01-12T06:30:01.292Z,100964.67
2018-01-12T06:32:28.774Z,100967.41
2018-01-12T06:34:56.249Z,100967.75
2018-01-12T06:37:23.768Z,100969.53
2018-01-12T06:39:51.242Z,100969.05
2018-01-12T06:42:18.697Z,100971.70
2018-01-12T06:44:46.169Z,100974.36
2018-01-12T06:47:13.616Z,100972.95
2018-01-12T06:49:41.092Z,100976.28
2018-01-12T06:52:08.549Z,100981.63
2018-01-12T06:54:36.052Z,100985.95
2018-01-12T06:57:03.514Z,100988.72
2018-01-12T06:59:30.979Z,100989.24
2018-01-12T07:01:58.440Z,100991.65
2018-01-12T07:04:25.894Z,100990.32
2018-01-12T07:06:53.380Z,100998.17
2018-01-12T07:09:20.846Z,100997.28
2018-01-12T07:11:48.309Z,101001.58
2018-01-12T07:14:15.801Z,101005.12
2018-01-12T07:16:43.272Z,101005.20
2018-01-12T07:19:10.721Z,101009.10
2018-01-12T07:21:50.222Z,101005.56
2018-01-12T07:24:17.687Z,101021.80
2018-01-12T07:26:45.276Z,101016.30
2018-01-12T07:29:12.755Z,101019.03
2018-01-12T07:31:40.237Z,101022.93
2018-01-12T07:34:07.711Z,101025.14
2018-01-12T07:36:35.191Z,101027.63
2018-01-12T07:39:02.841Z,101031.02
2018-01-12T07:41:30.293Z,101026.31
2018-01-12T07:43:57.759Z,101033.47
2018-01-12T07:46:25.224Z,101035.20
2018-01-12T07:48:52.692Z,101037.64
2018-01-12T07:51:20.141Z,101039.58
2018-01-12T07:53:47.629Z,101034.95
2018-01-12T07:56:15.073Z,101040.82
2018-01-12T07:58:42.520Z,101048.38
2018-01-12T08:01:15.717Z,101047.86
2018-01-12T08:03:43.170Z,101057.87
2018-01-12T08:06:10.638Z,101056.87
2018-01-12T08:08:38.101Z,101059.16
2018-01-12T08:11:05.583Z,101066.77
2018-01-12T08:13:33.040Z,101064.06
2018-01-12T08:16:00.541Z,101068.64
2018-01-12T08:18:27.997Z,101074.23
2018-01-12T08:20:55.464Z,101071.95
2018-01-12T08:23:22.923Z,101076.66
2018-01-12T08:25:50.496Z,101074.20
2018-01-12T08:28:17.958Z,101079.27
2018-01-12T08:30:45.408Z,101076.22
2018-01-12T08:33:12.865Z,101081.41
2018-01-12T08:35:40.347Z,101078.43
2018-01-12T08:38:07.838Z,101082.77
2018-01-12T08:40:35.275Z,101085.30
2018-01-12T08:43:02.761Z,101088.80
2018-01-12T08:45:30.208Z,101092.46
2018-01-12T08:47:57.683Z,101095.77
2018-01-12T08:50:25.191Z,101099.17
2018-01-12T08:52:52.676Z,101101.23
2018-01-12T08:55:20.128Z,101104.57
2018-01-12T08:57:47.607Z,101105.27
2018-01-12T09:00:15.134Z,101111.70
2018-01-12T09:02:42.614Z,101108.48
2018-01-12T09:05:10.078Z,101115.36
2018-01-12T09:07:37.563Z,101112.42
2018-01-12T09:10:05.029Z,101110.69
2018-01-12T09:12:32.481Z,101114.44
2018-01-12T09:15:06.853Z,101117.61
2018-01-12T09:17:49.203Z,101126.99
2018-01-12T09:20:17.430Z,101124.69
2018-01-12T09:22:46.800Z,101126.51
2018-01-12T09:25:26.285Z,101125.91
2018-01-12T09:27:53.749Z,101130.48
2018-01-12T09:30:21.247Z,101130.65
2018-01-12T09:32:49.589Z,101127.27
2018-01-12T09:35:17.060Z,101132.78
2018-01-12T09:37:44.528Z,101127.88
2018-01-12T09:40:19.299Z,101126.91
2018-01-12T09:42:46.786Z,101132.18
2018-01-12T09:45:14.293Z,101134.63
2018-01-12T09:47:42.144Z,101130.49
2018-01-12T09:50:09.607Z,101127.71
2018-01-12T09:52:37.060Z,101130.28
2018-01-12T09:55:04.528Z,101127.39
2018-01-12T09:57:31.993Z,101124.62
2018-01-12T09:59:59.536Z,101134.19
2018-01-12T10:02:27.028Z,101135.69
2018-01-12T10:04:54.504Z,101142.53
2018-01-12T10:07:21.976Z,101134.56
2018-01-12T10:09:49.430Z,101146.55
2018-01-12T10:12:16.890Z,101144.01
2018-01-12T10:14:44.332Z,101142.64
2018-01-12T10:17:11.789Z,101141.19
2018-01-12T10:20:01.733Z,101139.66
2018-01-12T10:22:29.279Z,101142.03
2018-01-12T10:24:56.762Z,101137.00
2018-01-12T10:27:24.263Z,101137.41
2018-01-12T10:29:57.648Z,101139.83
2018-01-12T10:35:25.787Z,101130.84
2018-01-12T10:37:53.355Z,101142.27
2018-01-12T10:43:23.633Z,101139.48
2018-01-12T10:46:03.035Z,101136.98
2018-01-12T10:48:42.301Z,101148.02
2018-01-12T10:51:16.500Z,101140.98
2018-01-12T10:53:43.969Z,101145.64
2018-01-12T10:56:11.412Z,101148.05
2018-01-12T10:58:38.872Z,101144.05
2018-01-12T11:01:09.785Z,101149.77
2018-01-12T11:03:37.242Z,101151.53
2018-01-12T11:06:04.692Z,101146.84
2018-01-12T11:08:32.192Z,101152.16
2018-01-12T11:10:59.697Z,101149.55
2018-01-12T11:13:27.165Z,101152.95
2018-01-12T11:15:54.640Z,101149.17
2018-01-12T11:18:22.097Z,101149.97
2018-01-12T11:20:49.566Z,101145.19
2018-01-12T11:23:17.018Z,101153.30
2018-01-12T11:25:44.477Z,101151.63
2018-01-12T11:28:11.942Z,101147.29
2018-01-12T11:30:39.396Z,101156.25
2018-01-12T11:33:06.927Z,101155.93
2018-01-12T11:35:34.382Z,101157.86
2018-01-12T11:38:01.844Z,101156.25
2018-01-12T11:40:29.361Z,101150.66
2018-01-12T11:42:56.831Z,101152.02
2018-01-12T11:45:24.308Z,101159.75
2018-01-12T11:47:51.797Z,101156.84
2018-01-12T11:50:19.260Z,101156.20
2018-01-12T11:52:46.726Z,101147.67
2018-01-12T11:55:14.175Z,101150.12
2018-01-12T11:57:41.637Z,101153.95
2018-01-12T12:00:09.088Z,101157.40
2018-01-12T12:02:36.553Z,101152.61
2018-01-12T12:05:04.011Z,101152.30
2018-01-12T12:07:31.467Z,101154.03
2018-01-12T12:09:58.920Z,101153.22
2018-01-12T12:12:26.398Z,101160.11
2018-01-12T12:14:53.865Z,101157.12
2018-01-12T12:17:21.346Z,101158.81
2018-01-12T12:19:48.800Z,101160.23
2018-01-12T12:22:16.242Z,101152.62
2018-01-12T12:24:43.704Z,101158.77
2018-01-12T12:27:11.165Z,101159.10
2018-01-12T12:29:38.635Z,101159.92
2018-01-12T12:32:06.086Z,101161.69
2018-01-12T12:34:33.553Z,101161.25
2018-01-12T12:37:01.020Z,101160.52
2018-01-12T12:39:28.509Z,101162.33
2018-01-12T12:41:55.969Z,101160.24
2018-01-12T12:44:23.436Z,101164.58
2018-01-12T12:46:50.891Z,101161.84
2018-01-12T12:49:22.304Z,101169.94
2018-01-12T12:51:49.750Z,101171.95
2018-01-12T12:54:17.235Z,101173.00
2018-01-12T12:56:44.707Z,101174.78
2018-01-12T12:59:12.198Z,101171.20
2018-01-12T13:01:39.657Z,101177.23
2018-01-12T13:04:07.108Z,101176.52
2018-01-12T13:06:35.468Z,101174.22
2018-01-12T13:09:02.977Z,101178.86
2018-01-12T13:11:30.452Z,101176.56
2018-01-12T13:13:57.900Z,101182.20
2018-01-12T13:16:26.222Z,101181.23
2018-01-12T13:18:53.673Z,101186.63
2018-01-12T13:21:21.139Z,101189.57
2018-01-12T13:23:48.585Z,101191.50
2018-01-12T13:26:16.061Z,101189.37
2018-01-12T13:28:43.520Z,101192.23
2018-01-12T13:31:10.968Z,101191.34
2018-01-12T13:33:38.442Z,101189.90
2018-01-12T13:36:05.898Z,101202.45
2018-01-12T13:38:33.365Z,101200.08
2018-01-12T13:41:00.840Z,101196.45
2018-01-12T13:43:28.303Z,101204.55
2018-01-12T13:45:55.779Z,101206.40
2018-01-12T13:48:23.235Z,101203.25
2018-01-12T13:50:50.693Z,101209.98
2018-01-12T13:53:18.188Z,101214.80
2018-01-12T13:55:46.325Z,101218.59
2018-01-12T13:58:13.821Z,101222.00
2018-01-12T14:00:41.438Z,101219.98
2018-01-12T14:03:08.896Z,101224.00
2018-01-12T14:05:36.375Z,101230.41
2018-01-12T14:08:03.824Z,101235.75
2018-01-12T14:10:31.289Z,101234.88
2018-01-12T14:12:58.752Z,101235.95
2018-01-12T14:15:26.238Z,101240.83
2018-01-12T14:17:53.698Z,101241.00
2018-01-12T14:20:21.171Z,101243.56
2018-01-12T14:22:48.639Z,101240.42
2018-01-12T14:25:16.124Z,101243.70
2018-01-12T14:27:43.588Z,101248.38
2018-01-12T14:30:11.075Z,101256.12
2018-01-12T14:32:38.532Z,101255.23
2018-01-12T14:35:08.453Z,101256.87
2018-01-12T14:37:35.948Z,101255.52
2018-01-12T14:40:03.410Z,101257.78
2018-01-12T14:42:30.888Z,101254.61
2018-01-12T14:44:58.348Z,101264.08
2018-01-12T14:47:25.823Z,101266.13
2018-01-12T14:49:53.271Z,101265.21
2018-01-12T14:52:20.813Z,101267.26
2018-01-12T14:54:48.263Z,101266.97
2018-01-12T14:57:15.736Z,101270.63
2018-01-12T14:59:43.234Z,101274.13
2018-01-12T15:02:10.735Z,101271.64
2018-01-12T15:04:38.193Z,101275.47
2018-01-12T15:07:05.696Z,101273.34
2018-01-12T15:09:33.169Z,101284.54
2018-01-12T15:12:00.659Z,101277.50
2018-01-12T15:14:28.119Z,101277.42
2018-01-12T15:16:55.588Z,101286.45
2018-01-12T15:19:23.073Z,101285.94
2018-01-12T15:21:50.523Z,101294.33
2018-01-12T15:24:18.027Z,101293.63
2018-01-12T15:26:46.468Z,101294.74
2018-01-12T15:29:13.919Z,101290.86
2018-01-12T15:31:41.397Z,101293.31
2018-01-12T15:34:08.858Z,101290.56
2018-01-12T15:36:36.315Z,101282.52
2018-01-12T15:39:03.771Z,101298.52
2018-01-12T15:41:31.343Z,101292.69
2018-01-12T15:43:58.835Z,101295.55
2018-01-12T15:46:26.326Z,101292.91
2018-01-12T15:48:54.400Z,101295.98
2018-01-12T15:51:21.884Z,101296.79
2018-01-12T15:53:49.333Z,101294.56
2018-01-12T15:56:16.833Z,101294.54
2018-01-12T15:58:44.298Z,101299.55
2018-01-12T16:01:11.830Z,101299.98
2018-01-12T16:03:39.280Z,101309.48
2018-01-12T16:06:06.745Z,101314.58
2018-01-12T16:08:34.198Z,101310.40
2018-01-12T16:11:01.754Z,101312.84
2018-01-12T16:13:29.278Z,101315.28
2018-01-12T16:15:56.742Z,101312.03
2018-01-12T16:18:24.267Z,101322.83
2018-01-12T16:20:51.736Z,101315.19
2018-01-12T16:23:19.257Z,101323.14
2018-01-12T16:25:46.720Z,101315.91
2018-01-12T16:28:14.193Z,101324.57
2018-01-12T16:30:41.663Z,101319.05
2018-01-12T16:33:09.134Z,101319.55
2018-01-12T16:35:36.629Z,101328.35
2018-01-12T16:38:11.734Z,101332.55
2018-01-12T16:40:39.885Z,101329.38
2018-01-12T16:43:07.412Z,101331.19
2018-01-12T16:45:35.166Z,101332.41
2018-01-12T16:48:02.619Z,101337.42
2018-01-12T16:50:30.123Z,101327.03
2018-01-12T16:52:57.617Z,101331.80
2018-01-12T16:55:25.119Z,101338.64
2018-01-12T16:57:59.633Z,101340.27
2018-01-12T17:00:27.124Z,101335.80
2018-01-12T17:02:54.580Z,101338.23
2018-01-12T17:05:22.054Z,101339.16
2018-01-12T17:07:49.512Z,101333.64
2018-01-12T17:10:16.984Z,101342.83
2018-01-12T17:12:44.445Z,101345.47
2018-01-12T17:15:11.992Z,101351.18
2018-01-12T17:17:39.479Z,101347.51
2018-01-12T17:20:06.942Z,101346.20
2018-01-12T17:22:34.419Z,101345.47
2018-01-12T17:25:01.874Z,101352.42
2018-01-12T17:27:29.327Z,101354.16
2018-01-12T17:29:56.793Z,101354.27
2018-01-12T17:32:24.263Z,101361.69
2018-01-12T17:34:51.739Z,101356.61
2018-01-12T17:37:19.237Z,101359.27
2018-01-12T17:39:46.702Z,101359.96
2018-01-12T17:42:14.165Z,101355.28
2018-01-12T17:44:41.630Z,101358.02
2018-01-12T17:47:09.082Z,101364.25
2018-01-12T17:49:36.556Z,101355.28
2018-01-12T17:52:04.008Z,101359.78
2018-01-12T17:54:31.476Z,101360.59
2018-01-12T17:56:58.927Z,101362.22
2018-01-12T17:59:30.434Z,101356.72
2018-01-12T18:01:57.902Z,101359.58
2018-01-12T18:04:25.367Z,101363.65
2018-01-12T18:06:52.836Z,101360.80
2018-01-12T18:09:20.301Z,101361.80
2018-01-12T18:11:47.776Z,101364.15
2018-01-12T18:14:15.236Z,101371.59
2018-01-12T18:16:42.747Z,101372.92
2018-01-12T18:19:10.282Z,101376.39
2018-01-12T18:21:37.774Z,101374.47
2018-01-12T18:24:05.238Z,101372.31
2018-01-12T18:26:32.836Z,101375.67
2018-01-12T18:29:00.303Z,101375.77
2018-01-12T18:31:27.790Z,101376.39
2018-01-12T18:33:55.297Z,101382.59
2018-01-12T18:36:22.799Z,101381.78
2018-01-12T18:38:50.265Z,101384.13
2018-01-12T18:41:17.738Z,101384.84
2018-01-12T18:43:45.214Z,101386.57
2018-01-12T18:46:12.680Z,101386.39
2018-01-12T18:48:40.174Z,101388.00
2018-01-12T18:51:07.631Z,101389.33
2018-01-12T18:53:35.112Z,101388.63
2018-01-12T18:56:02.656Z,101386.77
2018-01-12T18:58:30.146Z,101386.07
2018-01-12T19:00:57.734Z,101386.48
2018-01-12T19:03:25.185Z,101388.93
2018-01-12T19:05:52.671Z,101390.55
2018-01-12T19:08:20.153Z,101391.76
2018-01-12T19:10:47.753Z,101394.82
2018-01-12T19:13:15.229Z,101394.30
2018-01-12T19:15:42.744Z,101391.25
2018-01-12T19:18:10.209Z,101397.05
2018-01-12T19:20:37.683Z,101407.96
2018-01-12T19:23:05.141Z,101404.09
2018-01-12T19:25:32.637Z,101408.48
2018-01-12T19:28:00.152Z,101408.28
2018-01-12T19:30:27.676Z,101412.58
2018-01-12T19:32:55.183Z,101417.55
2018-01-12T19:35:22.744Z,101426.22
2018-01-12T19:37:50.240Z,101423.53
2018-01-12T19:40:17.780Z,101422.39
2018-01-12T19:42:45.331Z,101429.44
2018-01-12T19:45:12.822Z,101421.50
2018-01-12T19:47:40.300Z,101420.08
2018-01-12T19:50:07.763Z,101419.73
2018-01-12T19:52:35.395Z,101424.24
2018-01-12T19:55:03.147Z,101421.60
2018-01-12T19:57:30.723Z,101425.97
2018-01-12T19:59:58.236Z,101423.90
2018-01-12T20:02:25.780Z,101433.48
2018-01-12T20:04:53.299Z,101426.86
2018-01-12T20:07:20.793Z,101432.79
2018-01-12T20:09:48.266Z,101432.88
2018-01-12T20:12:15.741Z,101433.37
2018-01-12T20:14:43.460Z,101436.22
2018-01-12T20:17:10.959Z,101431.44
2018-01-12T20:19:38.512Z,101439.09
2018-01-12T20:22:06.139Z,101434.92
2018-01-12T20:24:33.710Z,101435.12
2018-01-12T20:27:01.218Z,101434.64
2018-01-12T20:29:28.679Z,101432.81
2018-01-12T20:31:56.246Z,101436.38
2018-01-12T20:34:23.749Z,101435.25
2018-01-12T20:36:51.251Z,101434.94
2018-01-12T20:39:18.739Z,101433.41
2018-01-12T20:41:46.280Z,101438.62
2018-01-12T20:44:13.805Z,101432.07
2018-01-12T20:46:41.331Z,101437.30
2018-01-12T20:49:09.116Z,101441.58
2018-01-12T20:51:36.656Z,101437.48
2018-01-12T20:54:04.304Z,101445.03
2018-01-12T20:56:31.875Z,101450.84
2018-01-12T20:58:59.616Z,101448.09
2018-01-12T21:01:27.099Z,101440.64
2018-01-12T21:03:54.654Z,101446.38
2018-01-12T21:06:22.338Z,101442.91
2018-01-12T21:08:49.875Z,101452.06
2018-01-12T21:11:17.392Z,101445.73
2018-01-12T21:13:44.931Z,101449.50
2018-01-12T21:16:12.464Z,101437.88
2018-01-12T21:21:32.572Z,101452.67
2018-01-12T21:24:00.135Z,101452.84
2018-01-12T21:26:28.051Z,101453.44
2018-01-12T21:28:55.670Z,101456.52
2018-01-12T21:31:23.134Z,101458.98
2018-01-12T21:33:50.606Z,101462.84
2018-01-12T21:36:18.185Z,101465.06
2018-01-12T21:38:45.715Z,101473.23
2018-01-12T21:41:13.272Z,101471.00
2018-01-12T21:43:40.793Z,101468.94
2018-01-12T21:46:08.315Z,101468.53
2018-01-12T21:48:35.812Z,101471.27
2018-01-12T21:51:03.321Z,101468.32
2018-01-12T21:53:30.863Z,101468.61
2018-01-12T21:55:58.324Z,101472.38
2018-01-12T21:58:25.846Z,101468.99
2018-01-12T22:00:53.354Z,101470.17
2018-01-12T22:03:20.977Z,101470.91
2018-01-12T22:05:48.508Z,101465.25
2018-01-12T22:08:16.040Z,101476.69
2018-01-12T22:10:43.512Z,101475.25
2018-01-12T22:13:10.981Z,101478.30
2018-01-12T22:15:38.514Z,101480.15
2018-01-12T22:18:05.999Z,101473.56
2018-01-12T22:20:33.455Z,101475.66
2018-01-12T22:23:00.918Z,101475.47
2018-01-12T22:25:28.389Z,101478.02
2018-01-12T22:27:55.875Z,101473.93
2018-01-12T22:30:23.427Z,101480.15
2018-01-12T22:32:50.904Z,101482.09
2018-01-12T22:35:18.367Z,101480.07
2018-01-12T22:37:45.905Z,101475.58
2018-01-12T22:40:13.369Z,101474.99
2018-01-12T22:42:40.845Z,101468.29
2018-01-12T22:45:08.342Z,101465.86
2018-01-12T22:47:35.844Z,101468.72
2018-01-12T22:50:03.308Z,101471.08
2018-01-12T22:52:30.767Z,101477.70
2018-01-12T22:54:58.257Z,101471.89
2018-01-12T22:57:25.821Z,101467.29
2018-01-12T22:59:53.292Z,101470.97
2018-01-12T23:02:20.845Z,101466.88
2018-01-12T23:04:48.360Z,101476.38
2018-01-12T23:07:15.820Z,101472.08
2018-01-12T23:09:43.349Z,101468.72
2018-01-12T23:12:10.809Z,101469.86
2018-01-12T23:14:38.280Z,101471.16
2018-01-12T23:17:05.751Z,101463.05
2018-01-12T23:19:33.221Z,101463.13
2018-01-12T23:22:00.687Z,101465.99
2018-01-12T23:24:28.141Z,101464.13
2018-01-12T23:26:55.635Z,101461.61
2018-01-12T23:29:23.090Z,101453.14
2018-01-12T23:31:50.597Z,101453.14
2018-01-12T23:34:18.060Z,101453.14
2018-01-12T23:36:45.900Z,101453.84
2018-01-12T23:39:13.872Z,101456.71
2018-01-12T23:41:42.963Z,101452.73
2018-01-12T23:44:10.447Z,101451.41
2018-01-12T23:46:37.910Z,101449.17
2018-01-12T23:49:05.390Z,101443.34
2018-01-12T23:51:32.855Z,101450.30
2018-01-12T23:54:00.372Z,101449.16
2018-01-12T23:56:27.842Z,101444.05
2018-01-12T23:58:55.609Z,101446.95
